Time;durP1;ratioP1;P1;durP2;ratioP2;P2;SDS_P1;SDS_P2;PMS_P1;PMS_P2;Temp;Humidity;BMP_temperature;BMP_pressure;BME280_temperature;BME280_humidity;BME280_pressure;Samples;Min_cycle;Max_cycle;Signal;HPM_P1;HPM_P2
2021/04/27 00:02:02;;;;;;;15.53;11.60;;;25.90;90.20;;;;;;5076649;28;20956;-78
2021/04/27 00:04:29;;;;;;;16.70;11.50;;;25.20;90.80;;;;;;5084388;28;20380;-78
2021/04/27 00:06:56;;;;;;;14.43;10.23;;;23.90;92.00;;;;;;5085747;28;20404;-79
2021/04/27 00:09:23;;;;;;;11.70;8.00;;;22.80;93.80;;;;;;5084338;28;20443;-78
2021/04/27 00:11:50;;;;;;;13.70;8.87;;;21.70;95.60;;;;;;5090366;28;20451;-78
2021/04/27 00:14:16;;;;;;;16.43;10.40;;;21.20;96.50;;;;;;5072955;28;20390;-78
2021/04/27 00:16:44;;;;;;;13.57;6.97;;;20.60;97.70;;;;;;5089751;28;20380;-77
2021/04/27 00:19:10;;;;;;;13.25;9.70;;;20.10;99.80;;;;;;5071635;28;20741;-78
2021/04/27 00:21:38;;;;;;;9.57;6.50;;;20.10;99.90;;;;;;5074455;28;20402;-78
2021/04/27 00:24:06;;;;;;;11.38;6.72;;;19.60;99.90;;;;;;5082223;28;20390;-77
2021/04/27 00:26:34;;;;;;;15.02;8.80;;;19.20;99.90;;;;;;5084954;28;20397;-77
2021/04/27 00:29:01;;;;;;;12.15;8.63;;;19.10;99.90;;;;;;5081643;28;20390;-77
2021/04/27 00:31:28;;;;;;;12.70;7.63;;;19.00;99.90;;;;;;5076710;28;20381;-78
2021/04/27 00:33:56;;;;;;;10.93;6.30;;;19.00;99.90;;;;;;5079627;28;20400;-77
2021/04/27 00:36:23;;;;;;;11.32;6.30;;;19.10;99.90;;;;;;5076300;28;20376;-78
2021/04/27 00:38:50;;;;;;;12.25;6.93;;;19.10;99.90;;;;;;5074264;28;20414;-78
2021/04/27 00:41:18;;;;;;;8.90;6.10;;;19.00;99.90;;;;;;5087639;28;20433;-77
2021/04/27 00:43:45;;;;;;;9.45;6.80;;;19.00;99.90;;;;;;5092014;28;20413;-78
2021/04/27 00:46:12;;;;;;;9.25;6.63;;;19.00;99.90;;;;;;5085786;28;20392;-78
2021/04/27 00:48:39;;;;;;;13.27;6.35;;;18.90;99.90;;;;;;5070143;28;20404;-78
2021/04/27 00:51:06;;;;;;;11.07;6.65;;;19.00;99.90;;;;;;5071599;28;20404;-78
2021/04/27 00:53:33;;;;;;;11.27;6.88;;;19.10;99.90;;;;;;5083267;28;20389;-78
2021/04/27 00:56:00;;;;;;;8.95;6.65;;;19.30;99.90;;;;;;5069913;28;20379;-78
2021/04/27 00:58:27;;;;;;;9.05;6.97;;;19.30;99.90;;;;;;5078537;28;20399;-77
2021/04/27 01:00:55;;;;;;;9.07;6.03;;;19.50;99.90;;;;;;5077821;28;20388;-78
2021/04/27 01:03:22;;;;;;;8.77;6.32;;;19.60;99.90;;;;;;5086969;28;21185;-78
2021/04/27 01:05:49;;;;;;;7.07;5.50;;;19.60;99.90;;;;;;5089260;28;20806;-78
2021/04/27 01:08:56;;;;;;;7.97;5.97;;;19.60;99.90;;;;;;5084154;28;20437;-78
2021/04/27 01:12:04;;;;;;;10.23;5.57;;;19.60;99.90;;;;;;5078977;28;20457;-77
2021/04/27 01:14:55;;;;;;;7.03;5.40;;;19.50;99.90;;;;;;5082952;28;20392;-78
2021/04/27 01:17:24;;;;;;;7.93;4.83;;;19.30;99.90;;;;;;5078376;28;20389;-78
2021/04/27 01:19:59;;;;;;;7.00;5.57;;;19.20;99.90;;;;;;5083838;28;20384;-77
2021/04/27 01:22:41;;;;;;;6.85;5.40;;;19.30;99.90;;;;;;5072263;28;20486;-79
2021/04/27 01:25:10;;;;;;;10.70;5.90;;;19.40;99.90;;;;;;5087481;28;20384;-76
2021/04/27 01:27:37;;;;;;;9.15;5.47;;;19.60;99.90;;;;;;5101305;28;20832;-76
2021/04/27 01:30:05;;;;;;;8.77;5.25;;;19.50;99.90;;;;;;5081037;28;20393;-77
2021/04/27 01:32:33;;;;;;;7.27;4.63;;;19.40;99.90;;;;;;5067434;28;20465;-77
2021/04/27 01:35:00;;;;;;;9.02;5.47;;;19.50;99.90;;;;;;5081539;28;20387;-77
2021/04/27 01:37:27;;;;;;;8.37;5.20;;;19.50;99.90;;;;;;5090315;28;20482;-77
2021/04/27 01:39:54;;;;;;;7.80;4.90;;;19.60;99.90;;;;;;5092382;28;20384;-77
2021/04/27 01:42:21;;;;;;;7.60;5.05;;;19.60;99.90;;;;;;5088238;28;20407;-77
2021/04/27 01:44:49;;;;;;;8.95;4.97;;;19.60;99.90;;;;;;5089052;28;21055;-78
2021/04/27 01:47:17;;;;;;;9.97;5.07;;;19.80;99.90;;;;;;5091197;28;20439;-77
2021/04/27 01:49:45;;;;;;;7.78;5.13;;;19.80;99.90;;;;;;5089627;28;20433;-77
2021/04/27 01:52:13;;;;;;;8.75;4.93;;;19.80;99.90;;;;;;5090276;28;20388;-77
2021/04/27 01:54:40;;;;;;;6.80;4.90;;;19.80;99.90;;;;;;5091154;28;20720;-77
2021/04/27 01:57:07;;;;;;;5.63;4.80;;;19.70;99.90;;;;;;5081375;28;20384;-76
2021/04/27 01:59:34;;;;;;;5.30;4.43;;;19.80;99.90;;;;;;5080580;28;20385;-78
2021/04/27 02:02:01;;;;;;;7.40;4.75;;;19.80;99.90;;;;;;5077038;28;20404;-77
2021/04/27 02:04:30;;;;;;;9.35;4.97;;;20.00;99.90;;;;;;5077032;28;20382;-77
2021/04/27 02:06:57;;;;;;;6.97;4.90;;;20.00;99.90;;;;;;5077021;28;20435;-77
2021/04/27 02:09:27;;;;;;;7.03;4.55;;;20.00;99.90;;;;;;5076089;28;20459;-77
2021/04/27 02:11:55;;;;;;;8.40;4.90;;;20.00;99.90;;;;;;5084874;28;20410;-77
2021/04/27 02:14:28;;;;;;;6.07;4.55;;;19.90;99.90;;;;;;5085619;28;20425;-77
2021/04/27 02:17:13;;;;;;;6.40;4.63;;;19.80;99.90;;;;;;5075600;28;20417;-77
2021/04/27 02:19:41;;;;;;;6.25;4.63;;;19.90;99.90;;;;;;5072128;28;20412;-77
2021/04/27 02:22:10;;;;;;;6.15;4.32;;;20.00;99.60;;;;;;5088398;28;20380;-77
2021/04/27 02:24:39;;;;;;;6.20;4.30;;;20.00;99.90;;;;;;5088900;28;20380;-77
2021/04/27 02:27:11;;;;;;;9.07;4.40;;;20.00;99.90;;;;;;5090225;28;20458;-77
2021/04/27 02:29:39;;;;;;;8.32;4.57;;;20.10;99.90;;;;;;5090276;28;20375;-77
2021/04/27 02:32:07;;;;;;;7.47;4.60;;;20.20;99.70;;;;;;5090315;28;20404;-77
2021/04/27 02:34:35;;;;;;;5.45;3.88;;;20.30;99.30;;;;;;5096914;28;20383;-77
2021/04/27 02:37:02;;;;;;;5.82;4.15;;;20.50;98.80;;;;;;5089824;28;20475;-78
2021/04/27 02:39:29;;;;;;;5.25;3.85;;;20.70;99.40;;;;;;5089354;28;20743;-78
2021/04/27 02:41:56;;;;;;;6.88;4.07;;;20.80;98.40;;;;;;5087718;28;20805;-77
2021/04/27 02:44:23;;;;;;;7.80;4.10;;;20.90;98.20;;;;;;5086838;28;20385;-77
2021/04/27 02:46:53;;;;;;;6.57;3.90;;;20.90;98.00;;;;;;5069930;28;20386;-77
2021/04/27 02:49:21;;;;;;;6.10;3.85;;;20.80;97.50;;;;;;5072546;28;20412;-78
2021/04/27 02:51:48;;;;;;;5.65;3.70;;;20.80;97.80;;;;;;5078753;28;20420;-78
2021/04/27 02:54:15;;;;;;;7.38;3.78;;;20.70;97.30;;;;;;5094203;28;20396;-77
2021/04/27 02:56:42;;;;;;;7.65;3.88;;;20.70;97.80;;;;;;5092756;28;20384;-78
2021/04/27 02:59:09;;;;;;;9.40;3.97;;;20.70;96.80;;;;;;5088713;28;20428;-78
2021/04/27 03:01:36;;;;;;;6.45;4.10;;;20.70;96.80;;;;;;5078580;28;20388;-78
2021/04/27 03:04:05;;;;;;;5.55;3.75;;;20.70;97.20;;;;;;5097507;28;20400;-78
2021/04/27 03:06:32;;;;;;;7.18;3.92;;;20.70;97.40;;;;;;5088886;28;20395;-77
2021/04/27 03:09:00;;;;;;;5.35;3.85;;;20.80;96.90;;;;;;5081793;28;20396;-78
2021/04/27 03:11:27;;;;;;;4.90;3.80;;;20.60;96.90;;;;;;5083968;28;20380;-77
2021/04/27 03:13:54;;;;;;;5.20;4.00;;;20.50;97.10;;;;;;5088177;28;20512;-77
2021/04/27 03:16:23;;;;;;;7.45;4.15;;;20.40;97.70;;;;;;5079861;28;20419;-78
2021/04/27 03:18:50;;;;;;;6.18;4.00;;;20.30;97.80;;;;;;5087334;28;20395;-77
2021/04/27 03:21:17;;;;;;;6.53;3.85;;;20.20;97.40;;;;;;5088319;28;20376;-77
2021/04/27 03:23:44;;;;;;;8.17;4.30;;;20.20;97.40;;;;;;5081705;28;20397;-77
2021/04/27 03:26:13;;;;;;;8.95;4.20;;;20.10;97.50;;;;;;5069605;28;20441;-78
2021/04/27 03:28:42;;;;;;;6.67;4.20;;;19.90;97.80;;;;;;5078295;28;20411;-77
2021/04/27 03:31:09;;;;;;;4.82;3.72;;;19.80;98.20;;;;;;5083285;28;20384;-77
2021/04/27 03:33:36;;;;;;;6.47;4.22;;;19.80;97.50;;;;;;5090117;28;20384;-77
2021/04/27 03:36:04;;;;;;;5.93;4.00;;;19.80;97.60;;;;;;5089906;28;20392;-77
2021/04/27 03:38:32;;;;;;;4.60;3.70;;;19.80;98.40;;;;;;5080580;28;20397;-77
2021/04/27 03:40:59;;;;;;;6.72;3.90;;;19.90;98.30;;;;;;5079382;28;20481;-78
2021/04/27 03:43:26;;;;;;;7.50;4.43;;;20.00;98.20;;;;;;5091608;28;20394;-75
2021/04/27 03:45:53;;;;;;;5.88;4.00;;;20.10;97.70;;;;;;5108138;28;20382;-77
2021/04/27 03:48:22;;;;;;;7.80;4.28;;;20.20;98.30;;;;;;5068471;28;20402;-77
2021/04/27 03:50:49;;;;;;;6.40;4.50;;;20.40;97.20;;;;;;5075871;28;20396;-76
2021/04/27 03:53:16;;;;;;;7.75;4.10;;;20.50;97.10;;;;;;5088623;28;20384;-76
2021/04/27 03:55:44;;;;;;;6.78;4.32;;;20.30;96.80;;;;;;5080214;28;20405;-76
2021/04/27 03:58:10;;;;;;;5.53;4.20;;;20.10;97.20;;;;;;5074637;28;20390;-77
2021/04/27 04:00:37;;;;;;;6.65;3.83;;;20.10;98.00;;;;;;5072826;28;20522;-77
2021/04/27 04:03:05;;;;;;;6.10;4.10;;;20.20;98.00;;;;;;5075040;28;21175;-77
2021/04/27 04:05:32;;;;;;;5.25;4.32;;;20.20;97.40;;;;;;5068569;28;20389;-77
2021/04/27 04:07:59;;;;;;;6.77;4.07;;;20.30;97.70;;;;;;5079464;28;20419;-78
2021/04/27 04:10:26;;;;;;;5.13;4.53;;;20.30;97.80;;;;;;5094826;28;20478;-77
2021/04/27 04:12:54;;;;;;;6.53;4.40;;;20.40;98.00;;;;;;5089063;28;20896;-76
2021/04/27 04:15:21;;;;;;;7.53;4.30;;;20.40;96.90;;;;;;5077209;28;20894;-76
2021/04/27 04:17:48;;;;;;;8.55;4.70;;;20.50;98.00;;;;;;5085264;28;20782;-76
2021/04/27 04:20:21;;;;;;;7.25;4.63;;;20.60;97.80;;;;;;5070721;28;20407;-77
2021/04/27 04:22:49;;;;;;;6.35;4.65;;;20.70;97.80;;;;;;5081938;28;20394;-77
2021/04/27 04:25:17;;;;;;;6.82;4.75;;;20.70;97.60;;;;;;5086643;28;20370;-76
2021/04/27 04:27:45;;;;;;;10.13;6.05;;;20.60;97.90;;;;;;5090951;28;20497;-77
2021/04/27 04:30:18;;;;;;;10.00;7.30;;;20.70;98.30;;;;;;5096311;28;20413;-77
2021/04/27 04:32:46;;;;;;;13.50;8.37;;;20.60;98.40;;;;;;5088946;28;20476;-77
2021/04/27 04:35:15;;;;;;;12.57;10.23;;;20.30;98.60;;;;;;5086879;28;20392;-77
2021/04/27 04:37:43;;;;;;;14.18;9.32;;;20.00;99.60;;;;;;5096137;28;20737;-78
2021/04/27 04:40:12;;;;;;;16.17;12.23;;;19.90;99.90;;;;;;5096988;28;20388;-77
2021/04/27 04:42:40;;;;;;;15.73;12.57;;;19.90;99.90;;;;;;5085398;28;20404;-77
2021/04/27 04:45:09;;;;;;;20.42;12.65;;;19.80;99.90;;;;;;5074640;28;20439;-77
2021/04/27 04:47:36;;;;;;;17.38;12.52;;;19.80;99.90;;;;;;5084302;28;20436;-77
2021/04/27 04:50:06;;;;;;;16.20;11.70;;;19.80;99.90;;;;;;5087525;28;20465;-77
2021/04/27 04:52:33;;;;;;;14.60;11.18;;;19.80;99.90;;;;;;5077340;28;20934;-78
2021/04/27 04:55:00;;;;;;;16.77;11.90;;;19.70;99.90;;;;;;5067883;28;20445;-77
2021/04/27 04:57:27;;;;;;;16.95;11.82;;;19.70;99.90;;;;;;5068024;28;20382;-77
2021/04/27 04:59:54;;;;;;;24.45;12.90;;;19.70;99.90;;;;;;5067948;28;20887;-77
2021/04/27 05:02:21;;;;;;;17.73;12.45;;;19.70;99.90;;;;;;5079815;28;20792;-77
2021/04/27 05:04:48;;;;;;;17.75;12.10;;;19.60;99.90;;;;;;5087306;28;20835;-78
2021/04/27 05:07:15;;;;;;;18.02;12.27;;;19.60;99.90;;;;;;5087783;28;20483;-77
2021/04/27 05:09:42;;;;;;;16.33;12.90;;;19.40;99.90;;;;;;5086489;28;20890;-77
2021/04/27 05:12:10;;;;;;;16.00;12.80;;;19.30;99.90;;;;;;5091137;28;20819;-77
2021/04/27 05:14:40;;;;;;;19.63;12.82;;;19.30;99.90;;;;;;5089787;28;20402;-77
2021/04/27 05:17:08;;;;;;;15.85;12.45;;;19.30;99.90;;;;;;5091821;28;20368;-77
2021/04/27 05:19:35;;;;;;;22.63;13.75;;;19.20;99.90;;;;;;5104186;28;20382;-77
2021/04/27 05:22:04;;;;;;;15.53;12.40;;;19.20;99.90;;;;;;5101187;28;20737;-76
2021/04/27 05:24:34;;;;;;;17.67;12.93;;;19.20;99.90;;;;;;5090962;28;20475;-77
2021/04/27 05:27:01;;;;;;;16.98;12.50;;;19.20;99.90;;;;;;5091161;28;20466;-77
2021/04/27 05:29:28;;;;;;;21.20;12.95;;;19.10;99.90;;;;;;5089365;28;20913;-77
2021/04/27 05:31:55;;;;;;;17.40;12.70;;;19.10;99.90;;;;;;5091397;28;20419;-77
2021/04/27 05:34:22;;;;;;;14.95;11.73;;;19.00;99.90;;;;;;5083331;28;20805;-77
2021/04/27 05:36:49;;;;;;;16.13;11.90;;;19.00;99.90;;;;;;5085122;28;20453;-77
2021/04/27 05:39:16;;;;;;;16.88;11.85;;;18.90;99.90;;;;;;5090392;28;20384;-77
2021/04/27 05:41:43;;;;;;;16.00;11.00;;;18.80;99.90;;;;;;5086791;28;20460;-77
2021/04/27 05:44:10;;;;;;;16.80;11.23;;;18.80;99.90;;;;;;5082146;28;20950;-78
2021/04/27 05:46:38;;;;;;;19.48;11.30;;;18.70;99.90;;;;;;5088484;28;20487;-78
2021/04/27 05:49:05;;;;;;;15.07;11.45;;;18.70;99.90;;;;;;5086366;28;20871;-77
2021/04/27 05:51:32;;;;;;;17.33;11.05;;;18.60;99.90;;;;;;5087666;28;20392;-79
2021/04/27 05:53:59;;;;;;;15.40;10.63;;;18.60;99.90;;;;;;5090560;28;20388;-78
2021/04/27 05:56:26;;;;;;;16.67;10.68;;;18.60;99.90;;;;;;5091039;28;20407;-78
2021/04/27 05:58:54;;;;;;;17.25;10.70;;;18.60;99.90;;;;;;5090710;28;20444;-78
2021/04/27 06:01:21;;;;;;;16.38;10.20;;;18.50;99.90;;;;;;5090464;28;20801;-78
2021/04/27 06:03:49;;;;;;;14.88;10.68;;;18.50;99.90;;;;;;5090399;28;20383;-78
2021/04/27 06:06:16;;;;;;;17.65;10.00;;;18.50;99.90;;;;;;5090817;28;20421;-78
2021/04/27 06:08:43;;;;;;;12.70;10.18;;;18.40;99.90;;;;;;5090719;28;20384;-78
2021/04/27 06:11:10;;;;;;;14.98;10.20;;;18.40;99.90;;;;;;5093327;28;20388;-79
2021/04/27 06:13:37;;;;;;;16.25;10.55;;;18.30;99.90;;;;;;5110655;28;20374;-78
2021/04/27 06:16:05;;;;;;;15.07;9.80;;;18.30;99.90;;;;;;5110694;28;20371;-79
2021/04/27 06:18:32;;;;;;;16.40;10.65;;;18.30;99.90;;;;;;5110954;28;20404;-78
2021/04/27 06:21:00;;;;;;;14.52;9.93;;;18.30;99.90;;;;;;5095914;28;20855;-79
2021/04/27 06:23:27;;;;;;;13.38;9.68;;;18.30;99.90;;;;;;5088819;28;20467;-77
2021/04/27 06:25:54;;;;;;;14.60;10.68;;;18.20;99.90;;;;;;5090207;28;20388;-78
2021/04/27 06:28:21;;;;;;;15.27;10.73;;;18.20;99.90;;;;;;5088536;28;20522;-78
2021/04/27 06:30:48;;;;;;;15.82;11.23;;;18.20;99.90;;;;;;5087950;28;20376;-78
2021/04/27 06:33:15;;;;;;;16.02;11.43;;;18.10;99.90;;;;;;5089875;28;20817;-78
2021/04/27 06:35:43;;;;;;;13.32;11.10;;;18.00;99.90;;;;;;5089431;28;20774;-78
2021/04/27 06:38:16;;;;;;;17.30;11.77;;;18.00;99.90;;;;;;5089346;28;21293;-78
2021/04/27 06:40:47;;;;;;;14.82;10.85;;;17.90;99.90;;;;;;5089612;28;20387;-79
2021/04/27 06:43:14;;;;;;;17.45;11.68;;;17.80;99.90;;;;;;5088598;28;20409;-79
2021/04/27 06:45:41;;;;;;;17.53;12.30;;;17.70;99.90;;;;;;5088965;28;20398;-78
2021/04/27 06:48:09;;;;;;;16.65;12.48;;;17.70;99.90;;;;;;5089798;28;20409;-78
2021/04/27 06:50:40;;;;;;;18.63;12.50;;;17.60;99.90;;;;;;5089816;28;20408;-79
2021/04/27 06:53:08;;;;;;;15.10;11.82;;;17.50;99.90;;;;;;5089920;28;20445;-79
2021/04/27 06:55:36;;;;;;;18.17;12.65;;;17.40;99.90;;;;;;5089697;28;20376;-78
2021/04/27 06:58:05;;;;;;;19.87;12.50;;;17.40;99.90;;;;;;5089404;28;20376;-77
2021/04/27 07:00:32;;;;;;;16.70;11.55;;;17.30;99.90;;;;;;5088783;28;20372;-78
2021/04/27 07:02:59;;;;;;;16.60;11.07;;;17.20;99.90;;;;;;5089815;28;20457;-79
2021/04/27 07:05:27;;;;;;;19.55;11.43;;;17.20;99.90;;;;;;5089993;28;20375;-78
2021/04/27 07:07:54;;;;;;;18.42;11.18;;;17.10;99.90;;;;;;5089563;28;20411;-78
2021/04/27 07:10:24;;;;;;;16.88;11.15;;;17.00;99.90;;;;;;5091460;28;20395;-79
2021/04/27 07:12:52;;;;;;;16.77;11.02;;;16.90;99.90;;;;;;5089670;28;20361;-78
2021/04/27 07:15:20;;;;;;;17.27;10.73;;;16.80;99.90;;;;;;5089593;28;20383;-78
2021/04/27 07:17:47;;;;;;;16.85;10.65;;;16.70;99.90;;;;;;5089354;28;20938;-78
2021/04/27 07:20:16;;;;;;;14.00;10.32;;;16.70;99.90;;;;;;5089370;28;20368;-78
2021/04/27 07:22:43;;;;;;;14.85;10.30;;;16.60;99.90;;;;;;5089326;28;20774;-78
2021/04/27 07:25:11;;;;;;;16.33;9.95;;;16.50;99.90;;;;;;5089023;28;20364;-78
2021/04/27 07:27:39;;;;;;;13.60;9.45;;;16.50;99.90;;;;;;5089273;28;20729;-78
2021/04/27 07:30:08;;;;;;;14.00;9.60;;;16.40;99.90;;;;;;5089421;28;20459;-78
2021/04/27 07:32:35;;;;;;;12.77;9.52;;;16.30;99.90;;;;;;5080431;28;20402;-79
2021/04/27 07:35:02;;;;;;;13.18;9.38;;;16.30;99.90;;;;;;5078135;28;20875;-79
2021/04/27 07:37:30;;;;;;;15.10;9.45;;;16.20;99.90;;;;;;5085290;28;20404;-78
2021/04/27 07:39:57;;;;;;;11.98;8.27;;;16.20;99.90;;;;;;5076370;28;20378;-78
2021/04/27 07:42:24;;;;;;;13.25;9.52;;;16.10;99.90;;;;;;5086718;28;20396;-78
2021/04/27 07:44:51;;;;;;;13.23;8.60;;;16.10;99.90;;;;;;5085647;28;20380;-77
2021/04/27 07:47:19;;;;;;;11.75;9.02;;;16.00;99.90;;;;;;5080454;28;20895;-78
2021/04/27 07:49:46;;;;;;;14.63;9.10;;;15.90;99.90;;;;;;5093880;28;20478;-78
2021/04/27 07:52:13;;;;;;;13.90;9.10;;;15.90;99.90;;;;;;5080174;28;20795;-77
2021/04/27 07:54:40;;;;;;;13.20;8.32;;;15.90;99.90;;;;;;5072541;28;20403;-77
2021/04/27 07:57:07;;;;;;;11.55;8.30;;;15.80;99.90;;;;;;5087856;28;20377;-78
2021/04/27 07:59:34;;;;;;;11.93;8.95;;;15.70;99.90;;;;;;5074324;28;20386;-78
2021/04/27 08:02:01;;;;;;;10.43;7.97;;;15.70;99.90;;;;;;5080389;28;20440;-78
2021/04/27 08:04:28;;;;;;;12.38;8.55;;;15.70;99.90;;;;;;5077105;28;20380;-78
2021/04/27 08:06:55;;;;;;;12.02;8.18;;;15.70;99.90;;;;;;5088624;28;20478;-78
2021/04/27 08:09:22;;;;;;;12.48;8.40;;;15.60;99.90;;;;;;5080243;28;20406;-77
2021/04/27 08:11:50;;;;;;;11.77;7.97;;;15.50;99.90;;;;;;5068788;28;20368;-78
2021/04/27 08:14:18;;;;;;;13.02;8.00;;;15.50;99.90;;;;;;5067436;28;20757;-78
2021/04/27 08:16:45;;;;;;;12.40;8.43;;;15.50;99.90;;;;;;5078937;28;20388;-79
2021/04/27 08:19:12;;;;;;;12.68;8.18;;;15.40;99.90;;;;;;5082662;28;20402;-77
2021/04/27 08:21:39;;;;;;;14.73;8.40;;;15.50;99.90;;;;;;5079200;28;20394;-78
2021/04/27 08:24:07;;;;;;;12.27;8.25;;;15.50;99.90;;;;;;5085958;28;20898;-78
2021/04/27 08:26:34;;;;;;;13.65;8.18;;;15.50;99.90;;;;;;5087158;28;20408;-77
2021/04/27 08:29:01;;;;;;;11.63;8.27;;;15.50;99.90;;;;;;5080663;28;20465;-77
2021/04/27 08:31:28;;;;;;;11.33;7.87;;;15.50;99.90;;;;;;5081875;28;20728;-77
2021/04/27 08:33:55;;;;;;;10.80;7.53;;;15.40;99.90;;;;;;5078071;28;20920;-78
2021/04/27 08:36:22;;;;;;;12.30;7.60;;;15.40;99.90;;;;;;5081192;28;20392;-78
2021/04/27 08:38:49;;;;;;;11.68;7.43;;;15.40;99.90;;;;;;5077197;28;20399;-79
2021/04/27 08:41:16;;;;;;;12.45;8.15;;;15.40;99.90;;;;;;5077794;28;20393;-79
2021/04/27 08:43:43;;;;;;;12.55;7.53;;;15.30;99.90;;;;;;5069357;28;20378;-79
2021/04/27 08:46:10;;;;;;;11.75;7.82;;;15.30;99.90;;;;;;5073856;28;20397;-78
2021/04/27 08:48:37;;;;;;;8.55;7.10;;;15.30;99.90;;;;;;5090456;28;20417;-78
2021/04/27 08:51:05;;;;;;;10.57;7.47;;;15.20;99.90;;;;;;5096507;28;20474;-78
2021/04/27 08:53:32;;;;;;;11.30;7.70;;;15.20;99.90;;;;;;5090933;28;20395;-78
2021/04/27 08:55:59;;;;;;;9.45;7.50;;;15.20;99.90;;;;;;5092233;28;20376;-78
2021/04/27 08:58:26;;;;;;;13.65;7.38;;;15.10;99.90;;;;;;5091430;28;20385;-78
2021/04/27 09:00:53;;;;;;;11.70;7.82;;;15.10;99.90;;;;;;5091038;28;20400;-77
2021/04/27 09:03:20;;;;;;;10.82;7.65;;;15.10;99.90;;;;;;5097331;28;20395;-80
2021/04/27 09:05:47;;;;;;;11.27;7.68;;;15.00;99.90;;;;;;5091109;28;20482;-80
2021/04/27 09:08:14;;;;;;;11.48;7.90;;;15.00;99.90;;;;;;5090528;28;20465;-80
2021/04/27 09:10:44;;;;;;;10.13;7.25;;;15.00;99.90;;;;;;5091045;28;20384;-80
2021/04/27 09:13:12;;;;;;;11.45;7.57;;;14.90;99.90;;;;;;5090668;28;20905;-79
2021/04/27 09:15:46;;;;;;;11.52;8.07;;;15.00;99.90;;;;;;5088887;28;20928;-80
2021/04/27 09:18:30;;;;;;;12.75;7.78;;;15.00;99.90;;;;;;5092160;28;20452;-80
2021/04/27 09:21:07;;;;;;;12.90;8.05;;;15.00;99.90;;;;;;5089956;28;20837;-79
2021/04/27 09:23:36;;;;;;;12.38;7.85;;;14.90;99.90;;;;;;5087946;28;20488;-80
2021/04/27 09:26:15;;;;;;;10.07;7.43;;;14.90;99.90;;;;;;5093535;28;20483;-80
2021/04/27 09:28:53;;;;;;;10.52;8.00;;;14.90;99.90;;;;;;5090805;28;20493;-79
2021/04/27 09:31:33;;;;;;;11.77;7.63;;;14.80;99.90;;;;;;5091449;28;20387;-78
2021/04/27 09:34:23;;;;;;;12.43;7.53;;;14.80;99.90;;;;;;5094938;28;20398;-78
2021/04/27 09:36:52;;;;;;;10.00;7.25;;;14.70;99.90;;;;;;5092811;28;20464;-78
2021/04/27 09:39:21;;;;;;;8.93;7.40;;;14.70;99.90;;;;;;5091746;28;20376;-79
2021/04/27 09:42:02;;;;;;;14.07;8.00;;;14.70;99.90;;;;;;5097006;28;21242;-79
2021/04/27 09:44:51;;;;;;;12.00;6.93;;;14.70;99.90;;;;;;5080145;28;20384;-79
2021/04/27 09:47:38;;;;;;;14.57;7.50;;;14.60;99.90;;;;;;5089582;28;20458;-78
2021/04/27 09:50:12;;;;;;;9.98;6.88;;;14.60;99.90;;;;;;5095155;28;20902;-79
2021/04/27 09:52:46;;;;;;;9.27;7.17;;;14.60;99.90;;;;;;5088577;28;20394;-78
2021/04/27 09:55:21;;;;;;;10.70;7.40;;;14.60;99.90;;;;;;5077837;28;20449;-78
2021/04/27 09:57:50;;;;;;;10.43;6.88;;;14.60;99.90;;;;;;5090036;28;20495;-79
2021/04/27 10:00:35;;;;;;;11.20;7.32;;;14.60;99.90;;;;;;5086169;28;20423;-79
2021/04/27 10:03:13;;;;;;;8.75;6.68;;;14.60;99.90;;;;;;5101848;28;20870;-79
2021/04/27 10:05:46;;;;;;;11.20;7.53;;;14.60;99.90;;;;;;5084050;28;20424;-79
2021/04/27 10:08:13;;;;;;;9.70;7.25;;;14.50;99.90;;;;;;5076239;28;20409;-79
2021/04/27 10:10:41;;;;;;;11.38;6.90;;;14.50;99.90;;;;;;5072833;28;20421;-78
2021/04/27 10:13:10;;;;;;;11.13;7.18;;;14.50;99.90;;;;;;5075349;28;20415;-79
2021/04/27 10:15:38;;;;;;;9.55;7.53;;;14.50;99.90;;;;;;5075748;28;20396;-79
2021/04/27 10:18:08;;;;;;;12.88;7.47;;;14.40;99.90;;;;;;5081677;28;20400;-79
2021/04/27 10:20:36;;;;;;;9.10;7.20;;;14.40;99.90;;;;;;5074168;28;20427;-78
2021/04/27 10:23:12;;;;;;;11.27;7.13;;;14.40;99.90;;;;;;5070855;28;20401;-79
2021/04/27 10:25:41;;;;;;;13.68;7.25;;;14.40;99.90;;;;;;5079403;28;20709;-79
2021/04/27 10:28:09;;;;;;;10.30;7.43;;;14.30;99.90;;;;;;5087330;28;20409;-79
2021/04/27 10:30:45;;;;;;;11.75;7.38;;;14.30;99.90;;;;;;5076532;28;20386;-79
2021/04/27 10:33:14;;;;;;;12.63;8.23;;;14.30;99.90;;;;;;5077071;28;20394;-79
2021/04/27 10:36:01;;;;;;;11.90;7.38;;;14.30;99.90;;;;;;5075801;28;20401;-79
2021/04/27 10:38:49;;;;;;;11.38;8.07;;;14.40;99.90;;;;;;5079094;28;20738;-78
2021/04/27 10:41:22;;;;;;;9.45;6.75;;;14.40;99.90;;;;;;5076659;28;20397;-79
2021/04/27 10:43:59;;;;;;;11.18;7.30;;;14.40;99.90;;;;;;5075833;28;20468;-78
2021/04/27 10:46:26;;;;;;;8.13;7.20;;;14.50;99.90;;;;;;5073531;28;20451;-78
2021/04/27 10:49:16;;;;;;;11.07;7.20;;;14.50;99.90;;;;;;5075878;28;20459;-79
2021/04/27 10:51:43;;;;;;;9.90;6.65;;;14.50;99.90;;;;;;5077119;28;20928;-79
2021/04/27 10:54:28;;;;;;;9.90;6.80;;;14.50;99.90;;;;;;5088416;28;20449;-78
2021/04/27 10:57:14;;;;;;;11.10;6.35;;;14.50;99.90;;;;;;5076214;28;20427;-79
2021/04/27 10:59:54;;;;;;;9.93;6.57;;;14.50;99.90;;;;;;5075548;28;20943;-79
2021/04/27 11:02:25;;;;;;;13.35;7.38;;;14.50;99.90;;;;;;5083144;28;20396;-79
2021/04/27 11:04:55;;;;;;;12.70;7.55;;;14.60;99.90;;;;;;5083024;28;20476;-79
2021/04/27 11:07:22;;;;;;;8.40;6.28;;;14.60;99.90;;;;;;5083440;28;20412;-79
2021/04/27 11:10:03;;;;;;;10.55;6.30;;;14.70;99.90;;;;;;5086578;28;20455;-79
2021/04/27 11:12:46;;;;;;;9.90;5.68;;;14.80;99.90;;;;;;5082943;28;20443;-79
2021/04/27 11:15:27;;;;;;;9.93;5.95;;;14.90;99.90;;;;;;5086389;28;20391;-79
2021/04/27 11:18:10;;;;;;;9.60;6.30;;;15.00;99.90;;;;;;5086408;28;20368;-79
2021/04/27 11:21:12;;;;;;;10.25;6.10;;;15.10;99.90;;;;;;5084155;28;20406;-78
2021/04/27 11:23:56;;;;;;;10.27;6.07;;;15.20;99.90;;;;;;5082087;28;20396;-79
2021/04/27 11:26:35;;;;;;;11.63;6.22;;;15.20;99.90;;;;;;5086145;28;20437;-79
2021/04/27 11:29:06;;;;;;;10.65;6.70;;;15.20;99.90;;;;;;5086522;28;20388;-79
2021/04/27 11:31:56;;;;;;;10.57;6.73;;;15.20;99.90;;;;;;5080563;28;20449;-79
2021/04/27 11:34:25;;;;;;;10.13;6.78;;;15.30;99.90;;;;;;5095314;28;20406;-79
2021/04/27 11:36:53;;;;;;;10.40;7.00;;;15.30;99.90;;;;;;5105513;28;20462;-79
2021/04/27 11:39:28;;;;;;;10.30;7.05;;;15.30;99.90;;;;;;5100480;28;21421;-79
2021/04/27 11:42:04;;;;;;;10.63;6.70;;;15.30;99.90;;;;;;5081868;28;20403;-79
2021/04/27 11:44:36;;;;;;;9.32;6.88;;;15.30;99.90;;;;;;5084931;28;20392;-78
2021/04/27 11:47:14;;;;;;;11.17;7.07;;;15.20;99.90;;;;;;5084741;28;20454;-78
2021/04/27 11:50:02;;;;;;;9.02;7.20;;;15.30;99.90;;;;;;5086221;28;20432;-79
2021/04/27 11:52:50;;;;;;;10.20;6.80;;;15.30;99.90;;;;;;5081743;28;20478;-78
2021/04/27 11:55:29;;;;;;;10.55;7.57;;;15.20;99.90;;;;;;5083014;28;20419;-78
2021/04/27 11:57:57;;;;;;;10.07;6.85;;;15.30;99.90;;;;;;5079182;28;20381;-77
2021/04/27 12:00:34;;;;;;;8.95;7.18;;;15.20;99.90;;;;;;5079330;28;20762;-78
2021/04/27 12:03:15;;;;;;;9.32;6.70;;;15.20;99.90;;;;;;5077541;28;20483;-78
2021/04/27 12:05:42;;;;;;;11.18;7.40;;;15.20;99.90;;;;;;5080035;28;20885;-77
2021/04/27 12:08:23;;;;;;;8.52;7.30;;;15.20;99.90;;;;;;5078866;28;20414;-78
2021/04/27 12:11:11;;;;;;;10.80;6.88;;;15.10;99.90;;;;;;5080296;28;20981;-77
2021/04/27 12:13:43;;;;;;;12.25;7.20;;;15.10;99.90;;;;;;5079860;28;20404;-77
2021/04/27 12:16:32;;;;;;;9.68;7.05;;;15.00;99.90;;;;;;5073417;28;20380;-78
2021/04/27 12:19:11;;;;;;;10.05;7.20;;;15.10;99.90;;;;;;5067460;28;20404;-78
2021/04/27 12:21:43;;;;;;;10.50;7.32;;;15.10;99.90;;;;;;5074403;28;20757;-77
2021/04/27 12:24:32;;;;;;;8.23;6.60;;;15.10;99.90;;;;;;5081478;28;20398;-78
2021/04/27 12:27:08;;;;;;;11.45;7.10;;;15.10;99.90;;;;;;5072104;28;20444;-78
2021/04/27 12:29:39;;;;;;;9.02;6.65;;;15.20;99.90;;;;;;5076917;28;20486;-78
2021/04/27 12:32:11;;;;;;;8.77;7.20;;;15.20;99.90;;;;;;5075104;28;20397;-77
2021/04/27 12:35:21;;;;;;;12.20;7.05;;;15.20;99.90;;;;;;5074076;28;20439;-77
2021/04/27 12:38:11;;;;;;;9.52;6.75;;;15.20;99.90;;;;;;5034810;28;20772;-76
2021/04/27 12:40:43;;;;;;;10.43;6.90;;;15.30;99.90;;;;;;5072246;28;20402;-77
2021/04/27 12:43:13;;;;;;;9.80;7.18;;;15.20;99.90;;;;;;5083467;28;20787;-78
2021/04/27 12:46:01;;;;;;;7.63;6.82;;;15.20;99.90;;;;;;5079281;28;20378;-78
2021/04/27 12:48:32;;;;;;;8.80;6.85;;;15.10;99.90;;;;;;5080418;28;20405;-78
2021/04/27 12:51:06;;;;;;;9.05;6.90;;;15.10;99.90;;;;;;5078871;28;20434;-78
2021/04/27 12:53:37;;;;;;;9.93;6.85;;;15.10;99.90;;;;;;5073370;28;20754;-78
2021/04/27 12:56:18;;;;;;;9.45;7.13;;;15.10;99.90;;;;;;5073352;28;20394;-78